createdAt,value
2019-01-28T00:01:17.254Z,96306.82
2019-01-28T00:03:47.637Z,96306.23
2019-01-28T00:06:17.875Z,96309.00
2019-01-28T00:08:50.099Z,96309.38
2019-01-28T00:11:20.335Z,96306.74
2019-01-28T00:13:50.621Z,96305.96
2019-01-28T00:19:02.957Z,96306.91
2019-01-28T00:21:33.204Z,96316.73
2019-01-28T00:24:04.069Z,96315.12
2019-01-28T00:26:34.347Z,96315.98
2019-01-28T00:29:24.019Z,96311.27
2019-01-28T00:34:36.438Z,96311.27
2019-01-28T00:37:06.797Z,96313.07
2019-01-28T00:39:37.005Z,96307.41
2019-01-28T00:42:11.181Z,96320.72
2019-01-28T00:45:00.633Z,96314.70
2019-01-28T00:47:30.947Z,96316.56
2019-01-28T00:50:01.199Z,96315.08
2019-01-28T00:52:31.406Z,96322.76
2019-01-28T00:55:01.642Z,96320.98
2019-01-28T00:57:31.853Z,96322.97
2019-01-28T01:00:02.148Z,96321.98
2019-01-28T01:02:44.035Z,96315.65
2019-01-28T01:05:26.600Z,96314.70
2019-01-28T01:10:40.380Z,96319.35
2019-01-28T01:13:29.971Z,96328.80
2019-01-28T01:19:08.928Z,96337.06
2019-01-28T01:21:39.172Z,96339.39
2019-01-28T01:24:09.503Z,96348.97
2019-01-28T01:29:42.326Z,96344.41
2019-01-28T01:32:12.532Z,96345.59
2019-01-28T01:34:43.105Z,96348.67
2019-01-28T01:37:13.302Z,96349.74
2019-01-28T01:39:43.556Z,96346.81
2019-01-28T01:42:13.765Z,96335.39
2019-01-28T01:44:44.051Z,96339.62
2019-01-28T01:47:14.266Z,96341.63
2019-01-28T01:52:39.460Z,96343.65
2019-01-28T01:55:11.332Z,96341.64
2019-01-28T01:57:41.570Z,96339.88
2019-01-28T02:00:15.481Z,96342.26
2019-01-28T02:05:49.183Z,96345.05
2019-01-28T02:08:19.380Z,96349.45
2019-01-28T02:10:49.589Z,96352.30
2019-01-28T02:13:19.829Z,96350.60
2019-01-28T02:15:50.040Z,96352.23
2019-01-28T02:18:20.277Z,96366.87
2019-01-28T02:20:50.556Z,96364.42
2019-01-28T02:23:20.835Z,96365.39
2019-01-28T02:26:30.692Z,96363.05
2019-01-28T02:29:00.871Z,96371.14
2019-01-28T02:31:31.123Z,96373.98
2019-01-28T02:34:10.403Z,96373.98
2019-01-28T02:36:40.672Z,96386.16
2019-01-28T02:39:10.893Z,96400.81
2019-01-28T02:41:41.184Z,96392.17
2019-01-28T02:44:11.463Z,96395.74
2019-01-28T02:47:02.534Z,96396.31
2019-01-28T02:49:32.756Z,96399.90
2019-01-28T02:52:03.041Z,96404.50
2019-01-28T02:54:33.325Z,96405.11
2019-01-28T02:57:03.624Z,96410.78
2019-01-28T02:59:33.858Z,96414.72
2019-01-28T03:02:04.239Z,96433.55
2019-01-28T03:04:46.181Z,96428.52
2019-01-28T03:07:16.407Z,96439.44
2019-01-28T03:09:46.614Z,96450.41
2019-01-28T03:12:17.229Z,96462.86
2019-01-28T03:14:47.440Z,96469.12
2019-01-28T03:17:23.983Z,96479.05
2019-01-28T03:19:54.236Z,96486.23
2019-01-28T03:22:36.559Z,96498.17
2019-01-28T03:25:07.709Z,96501.11
2019-01-28T03:27:40.293Z,96505.17
2019-01-28T03:30:18.306Z,96522.08
2019-01-28T03:32:48.531Z,96533.00
2019-01-28T03:41:29.878Z,96531.33
2019-01-28T03:44:00.053Z,96533.42
2019-01-28T03:46:30.297Z,96540.58
2019-01-28T03:49:00.564Z,96547.75
2019-01-28T03:51:30.880Z,96552.52
2019-01-28T03:54:03.490Z,96555.62
2019-01-28T03:56:33.767Z,96558.19
2019-01-28T03:59:04.047Z,96562.36
2019-01-28T04:01:34.466Z,96571.01
2019-01-28T04:04:04.865Z,96572.80
2019-01-28T04:06:47.067Z,96567.83
2019-01-28T04:12:20.457Z,96574.19
2019-01-28T04:14:50.703Z,96576.80
2019-01-28T04:17:23.262Z,96579.98
2019-01-28T04:19:53.530Z,96581.91
2019-01-28T04:25:06.783Z,96575.41
2019-01-28T04:27:37.009Z,96578.36
2019-01-28T04:30:10.785Z,96577.14
2019-01-28T04:32:41.131Z,96572.72
2019-01-28T04:35:11.377Z,96572.63
2019-01-28T04:37:41.764Z,96576.03
2019-01-28T04:40:12.286Z,96582.94
2019-01-28T04:42:42.581Z,96587.02
2019-01-28T04:45:15.072Z,96594.09
2019-01-28T04:47:45.291Z,96592.41
2019-01-28T04:50:19.876Z,96584.05
2019-01-28T04:52:50.405Z,96583.10
2019-01-28T04:55:22.664Z,96591.49
2019-01-28T04:57:52.894Z,96590.17
2019-01-28T05:00:24.952Z,96582.14
2019-01-28T05:02:56.162Z,96585.71
2019-01-28T05:05:26.412Z,96585.36
2019-01-28T05:08:09.504Z,96577.61
2019-01-28T05:10:39.830Z,96581.06
2019-01-28T05:13:10.132Z,96579.71
2019-01-28T05:15:41.423Z,96578.93
2019-01-28T05:18:11.675Z,96572.50
2019-01-28T05:26:21.424Z,96572.36
2019-01-28T05:28:51.834Z,96576.07
2019-01-28T05:31:22.084Z,96575.40
2019-01-28T05:33:52.423Z,96573.94
2019-01-28T05:36:22.622Z,96573.33
2019-01-28T05:38:52.865Z,96583.53
2019-01-28T05:41:35.152Z,96583.48
2019-01-28T05:44:26.237Z,96582.77
2019-01-28T05:46:56.475Z,96580.61
2019-01-28T05:49:46.015Z,96583.28
2019-01-28T05:52:16.241Z,96573.68
2019-01-28T05:54:46.514Z,96574.94
2019-01-28T05:57:16.995Z,96577.41
2019-01-28T05:59:47.208Z,96575.73
2019-01-28T06:02:17.567Z,96577.20
2019-01-28T06:04:47.845Z,96577.09
2019-01-28T06:07:18.110Z,96571.84
2019-01-28T06:09:48.522Z,96576.79
2019-01-28T06:12:18.771Z,96576.08
2019-01-28T06:14:48.986Z,96584.90
2019-01-28T06:17:19.333Z,96578.42
2019-01-28T06:19:49.562Z,96583.52
2019-01-28T06:22:19.789Z,96583.35
2019-01-28T06:24:49.991Z,96584.28
2019-01-28T06:27:20.264Z,96582.24
2019-01-28T06:29:50.440Z,96590.48
2019-01-28T06:32:20.686Z,96593.94
2019-01-28T06:34:50.929Z,96601.69
2019-01-28T06:37:21.154Z,96610.57
2019-01-28T06:39:51.453Z,96601.16
2019-01-28T06:42:21.673Z,96606.23
2019-01-28T06:44:51.927Z,96600.68
2019-01-28T06:47:22.177Z,96603.19
2019-01-28T06:50:11.710Z,96610.05
2019-01-28T06:52:42.004Z,96605.41
2019-01-28T06:55:14.769Z,96613.64
2019-01-28T07:00:47.713Z,96591.24
2019-01-28T07:03:18.411Z,96613.59
2019-01-28T07:05:48.730Z,96615.13
2019-01-28T07:08:21.468Z,96624.45
2019-01-28T07:13:49.989Z,96622.09
2019-01-28T07:16:20.183Z,96622.71
2019-01-28T07:18:50.479Z,96616.02
2019-01-28T07:21:20.922Z,96616.99
2019-01-28T07:23:51.149Z,96614.94
2019-01-28T07:26:21.486Z,96616.66
2019-01-28T07:28:52.121Z,96616.83
2019-01-28T07:31:22.381Z,96613.51
2019-01-28T07:34:04.862Z,96621.17
2019-01-28T07:36:35.569Z,96623.06
2019-01-28T07:39:08.324Z,96626.09
2019-01-28T07:44:50.810Z,96630.20
2019-01-28T07:47:22.114Z,96623.72
2019-01-28T07:49:52.359Z,96625.41
2019-01-28T07:55:44.811Z,96625.28
2019-01-28T07:58:15.057Z,96631.44
2019-01-28T08:00:45.375Z,96622.08
2019-01-28T08:03:15.712Z,96625.88
2019-01-28T08:05:46.267Z,96628.72
2019-01-28T08:08:16.767Z,96620.75
2019-01-28T08:11:07.206Z,96625.77
2019-01-28T08:13:56.665Z,96626.81
2019-01-28T08:16:26.978Z,96618.05
2019-01-28T08:18:57.214Z,96617.17
2019-01-28T08:21:27.626Z,96612.95
2019-01-28T08:23:57.828Z,96620.02
2019-01-28T08:26:28.368Z,96613.67
2019-01-28T08:28:58.597Z,96613.45
2019-01-28T08:31:30.739Z,96607.14
2019-01-28T08:34:00.947Z,96612.73
2019-01-28T08:36:31.230Z,96616.89
2019-01-28T08:39:16.359Z,96625.40
2019-01-28T08:44:41.792Z,96632.93
2019-01-28T08:50:15.730Z,96634.64
2019-01-28T08:52:46.097Z,96638.35
2019-01-28T08:55:18.453Z,96632.59
2019-01-28T08:58:07.945Z,96641.29
2019-01-28T09:00:40.870Z,96648.48
2019-01-28T09:03:11.244Z,96651.05
2019-01-28T09:05:41.831Z,96649.56
2019-01-28T09:08:12.232Z,96649.59
2019-01-28T09:10:42.842Z,96654.48
2019-01-28T09:13:13.469Z,96656.71
2019-01-28T09:18:27.571Z,96657.52
2019-01-28T09:20:58.164Z,96664.34
2019-01-28T09:23:47.406Z,96654.97
2019-01-28T09:26:17.730Z,96662.67
2019-01-28T09:28:48.059Z,96661.75
2019-01-28T09:31:18.377Z,96656.89
2019-01-28T09:33:48.671Z,96659.88
2019-01-28T09:36:18.906Z,96664.83
2019-01-28T09:41:57.093Z,96658.28
2019-01-28T09:44:27.352Z,96662.84
2019-01-28T09:46:59.721Z,96664.02
2019-01-28T09:49:30.037Z,96678.72
2019-01-28T09:52:06.775Z,96667.17
2019-01-28T10:06:56.435Z,96668.78
2019-01-28T10:09:27.273Z,96662.87
2019-01-28T10:11:57.659Z,96662.20
2019-01-28T10:14:43.405Z,96651.55
2019-01-28T10:17:15.090Z,96643.42
2019-01-28T10:19:45.460Z,96647.79
2019-01-28T10:22:15.643Z,96648.39
2019-01-28T10:24:45.890Z,96649.54
2019-01-28T10:27:16.157Z,96641.13
2019-01-28T10:29:46.333Z,96645.85
2019-01-28T10:32:18.972Z,96646.05
2019-01-28T10:34:49.252Z,96639.81
2019-01-28T10:37:19.445Z,96640.45
2019-01-28T10:39:49.675Z,96639.47
2019-01-28T10:42:19.830Z,96637.03
2019-01-28T10:44:50.331Z,96647.79
2019-01-28T10:47:20.722Z,96639.25
2019-01-28T10:49:51.016Z,96638.23
2019-01-28T10:52:22.200Z,96629.88
2019-01-28T10:54:52.554Z,96627.89
2019-01-28T10:57:22.887Z,96632.16
2019-01-28T10:59:54.974Z,96628.12
2019-01-28T11:05:07.987Z,96630.54
2019-01-28T11:07:38.255Z,96636.22
2019-01-28T11:10:11.936Z,96635.61
2019-01-28T11:12:42.314Z,96643.77
2019-01-28T11:17:53.936Z,96634.39
2019-01-28T11:20:24.948Z,96641.08
2019-01-28T11:22:55.226Z,96643.73
2019-01-28T11:25:27.938Z,96648.58
2019-01-28T11:27:58.230Z,96647.61
2019-01-28T11:30:51.849Z,96644.69
2019-01-28T11:33:22.333Z,96646.62
2019-01-28T11:35:52.679Z,96636.31
2019-01-28T11:38:23.378Z,96641.78
2019-01-28T11:40:53.935Z,96626.19
2019-01-28T11:43:24.150Z,96624.34
2019-01-28T11:46:00.445Z,96632.94
2019-01-28T11:48:32.650Z,96625.70
2019-01-28T11:51:20.196Z,96626.09
2019-01-28T11:53:50.420Z,96628.11
2019-01-28T12:05:01.779Z,96636.06
2019-01-28T12:07:32.104Z,96634.70
2019-01-28T12:10:02.592Z,96634.52
2019-01-28T12:12:32.869Z,96639.14
2019-01-28T12:15:03.155Z,96647.18
2019-01-28T12:17:33.622Z,96647.84
2019-01-28T12:22:54.873Z,96632.73
2019-01-28T12:25:26.016Z,96631.17
2019-01-28T12:27:56.499Z,96631.13
2019-01-28T12:30:28.407Z,96630.01
2019-01-28T12:32:58.858Z,96637.20
2019-01-28T12:35:29.093Z,96629.69
2019-01-28T12:37:59.343Z,96639.31
2019-01-28T12:40:29.756Z,96638.05
2019-01-28T12:49:21.954Z,96633.55
2019-01-28T12:52:04.559Z,96627.02
2019-01-28T12:54:34.794Z,96627.98
2019-01-28T12:57:05.341Z,96632.97
2019-01-28T12:59:35.798Z,96625.58
2019-01-28T13:08:07.962Z,96629.58
2019-01-28T13:10:38.466Z,96631.31
2019-01-28T13:13:08.899Z,96626.42
2019-01-28T13:15:39.346Z,96628.52
2019-01-28T13:21:10.126Z,96634.63
2019-01-28T13:23:40.550Z,96633.59
2019-01-28T13:26:10.869Z,96626.83
2019-01-28T13:28:41.183Z,96630.38
2019-01-28T13:31:11.907Z,96629.58
2019-01-28T13:33:42.286Z,96630.66
2019-01-28T13:36:12.621Z,96623.00
2019-01-28T13:38:42.949Z,96623.01
2019-01-28T13:41:13.257Z,96624.75
2019-01-28T13:43:45.208Z,96618.45
2019-01-28T13:46:15.537Z,96626.55
2019-01-28T13:48:47.772Z,96620.63
2019-01-28T13:51:18.351Z,96624.38
2019-01-28T13:53:49.214Z,96621.19
2019-01-28T13:56:19.565Z,96624.77
2019-01-28T13:58:51.545Z,96624.64
2019-01-28T14:04:06.133Z,96626.63
2019-01-28T14:06:36.585Z,96629.68
2019-01-28T14:09:09.970Z,96624.81
2019-01-28T14:14:29.265Z,96618.16
2019-01-28T14:16:59.606Z,96625.11
2019-01-28T14:19:30.081Z,96625.11
2019-01-28T14:24:43.010Z,96617.05
2019-01-28T14:27:13.346Z,96628.03
2019-01-28T14:29:43.668Z,96636.88
2019-01-28T14:35:05.181Z,96630.98
2019-01-28T14:37:35.367Z,96635.72
2019-01-28T14:43:08.159Z,96632.55
2019-01-28T14:45:38.398Z,96635.26
2019-01-28T14:48:10.655Z,96641.47
2019-01-28T14:50:42.204Z,96638.80
2019-01-28T14:53:12.592Z,96628.99
2019-01-28T14:55:42.873Z,96628.23
2019-01-28T15:00:57.715Z,96633.32
2019-01-28T15:03:28.051Z,96636.30
2019-01-28T15:05:58.364Z,96641.95
2019-01-28T15:08:29.179Z,96639.85
2019-01-28T15:10:59.453Z,96632.83
2019-01-28T15:13:30.202Z,96637.22
2019-01-28T15:18:49.773Z,96632.34
2019-01-28T15:21:20.068Z,96628.11
2019-01-28T15:23:50.475Z,96633.67
2019-01-28T15:26:20.735Z,96629.41
2019-01-28T15:28:51.078Z,96635.59
2019-01-28T15:31:21.303Z,96631.05
2019-01-28T15:33:51.617Z,96627.48
2019-01-28T15:36:21.815Z,96623.70
2019-01-28T15:38:56.501Z,96627.27
2019-01-28T15:44:29.629Z,96621.83
2019-01-28T15:46:59.930Z,96629.29
2019-01-28T15:49:30.253Z,96626.66
2019-01-28T15:52:02.071Z,96630.75
2019-01-28T15:54:32.477Z,96633.00
2019-01-28T15:57:02.781Z,96629.44
2019-01-28T15:59:33.344Z,96627.59
2019-01-28T16:02:03.961Z,96627.95
2019-01-28T16:04:34.324Z,96630.38
2019-01-28T16:09:54.373Z,96632.54
2019-01-28T16:12:24.570Z,96630.38
2019-01-28T16:14:55.181Z,96628.34
2019-01-28T16:23:35.813Z,96624.94
2019-01-28T16:29:08.538Z,96627.72
2019-01-28T16:31:40.395Z,96629.73
2019-01-28T16:34:10.824Z,96627.96
2019-01-28T16:36:41.143Z,96626.79
2019-01-28T16:42:14.417Z,96626.79
2019-01-28T16:44:44.621Z,96637.95
2019-01-28T16:47:14.949Z,96633.61
2019-01-28T16:49:45.289Z,96633.44
2019-01-28T16:52:15.624Z,96631.91
2019-01-28T16:55:07.087Z,96637.56
2019-01-28T16:57:37.328Z,96632.55
2019-01-28T17:06:08.159Z,96639.95
2019-01-28T17:08:38.401Z,96635.47
2019-01-28T17:11:08.641Z,96636.56
2019-01-28T17:13:38.967Z,96635.92
2019-01-28T17:16:09.337Z,96628.35
2019-01-28T17:18:39.734Z,96638.41
2019-01-28T17:21:09.999Z,96634.47
2019-01-28T17:23:42.908Z,96631.77
2019-01-28T17:26:14.134Z,96630.52
2019-01-28T17:28:44.412Z,96633.30
2019-01-28T17:31:14.680Z,96629.88
2019-01-28T17:33:58.900Z,96625.86
2019-01-28T17:36:29.141Z,96638.09
2019-01-28T17:39:00.706Z,96631.44
2019-01-28T17:44:39.794Z,96640.80
2019-01-28T17:47:12.374Z,96645.20
2019-01-28T17:52:30.100Z,96649.08
2019-01-28T17:57:55.293Z,96653.17
2019-01-28T18:00:48.514Z,96649.78
2019-01-28T18:03:39.600Z,96654.13
2019-01-28T18:06:09.934Z,96656.83
2019-01-28T18:17:12.110Z,96652.42
2019-01-28T18:19:42.565Z,96654.80
2019-01-28T18:22:12.915Z,96666.90
2019-01-28T18:24:56.125Z,96663.95
2019-01-28T18:27:26.437Z,96661.84
2019-01-28T18:29:56.729Z,96661.09
2019-01-28T18:32:27.168Z,96665.83
2019-01-28T18:34:57.617Z,96671.70
2019-01-28T18:37:28.000Z,96665.83
2019-01-28T18:39:58.269Z,96667.09
2019-01-28T18:48:09.783Z,96685.17
2019-01-28T18:50:40.511Z,96678.51
2019-01-28T18:53:10.781Z,96681.66
2019-01-28T18:55:41.213Z,96689.99
2019-01-28T18:58:11.807Z,96682.23
2019-01-28T19:00:42.115Z,96698.05
2019-01-28T19:06:21.151Z,96697.98
2019-01-28T19:09:10.658Z,96698.16
2019-01-28T19:11:50.033Z,96702.81
2019-01-28T19:14:39.267Z,96706.23
2019-01-28T19:17:28.544Z,96709.37
2019-01-28T19:20:19.465Z,96706.26
2019-01-28T19:22:49.814Z,96709.71
2019-01-28T19:25:21.957Z,96720.07
2019-01-28T19:27:52.313Z,96712.08
2019-01-28T19:30:24.251Z,96723.05
2019-01-28T19:32:54.479Z,96718.28
2019-01-28T19:35:24.793Z,96725.03
2019-01-28T19:37:55.047Z,96728.00
2019-01-28T19:40:25.379Z,96727.90
2019-01-28T19:42:55.644Z,96730.69
2019-01-28T19:45:26.088Z,96734.77
2019-01-28T19:47:56.291Z,96742.88
2019-01-28T19:50:26.679Z,96743.38
2019-01-28T19:52:57.024Z,96749.94
2019-01-28T19:55:27.347Z,96749.16
2019-01-28T19:57:57.592Z,96750.84
2019-01-28T20:00:29.072Z,96754.41
2019-01-28T20:03:01.979Z,96758.29
2019-01-28T20:05:32.350Z,96755.84
2019-01-28T20:08:02.675Z,96755.52
2019-01-28T20:10:32.933Z,96763.28
2019-01-28T20:16:10.908Z,96771.84
2019-01-28T20:18:41.234Z,96774.53
2019-01-28T20:21:11.464Z,96774.94
2019-01-28T20:23:41.754Z,96776.67
2019-01-28T20:26:12.178Z,96792.48
2019-01-28T20:28:43.507Z,96791.32
2019-01-28T20:31:13.918Z,96797.38
2019-01-28T20:33:44.233Z,96797.03
2019-01-28T20:36:34.874Z,96797.41
2019-01-28T20:42:09.136Z,96803.59
2019-01-28T20:47:24.267Z,96815.91
2019-01-28T20:52:51.184Z,96819.48
2019-01-28T20:55:23.296Z,96825.03
2019-01-28T20:57:53.800Z,96826.25
2019-01-28T21:00:26.176Z,96822.08
2019-01-28T21:02:56.565Z,96823.21
2019-01-28T21:11:04.872Z,96835.32
2019-01-28T21:13:35.297Z,96842.06
2019-01-28T21:16:05.534Z,96844.59
2019-01-28T21:24:34.556Z,96849.63
2019-01-28T21:27:22.562Z,96852.30
2019-01-28T21:29:52.820Z,96858.33
2019-01-28T21:32:23.115Z,96861.60
2019-01-28T21:34:53.366Z,96859.13
2019-01-28T21:37:28.813Z,96862.70
2019-01-28T21:39:59.094Z,96874.42
2019-01-28T21:42:31.040Z,96867.99
2019-01-28T21:45:01.318Z,96877.92
2019-01-28T21:47:34.312Z,96880.41
2019-01-28T21:50:05.537Z,96876.36
2019-01-28T21:52:35.870Z,96885.75
2019-01-28T21:55:06.252Z,96881.28
2019-01-28T21:57:36.573Z,96877.30
2019-01-28T22:00:09.578Z,96884.05
2019-01-28T22:02:40.264Z,96886.90
2019-01-28T22:08:03.052Z,96896.38
2019-01-28T22:10:33.603Z,96906.05
2019-01-28T22:13:23.177Z,96911.02
2019-01-28T22:15:53.448Z,96909.89
2019-01-28T22:18:27.080Z,96913.28
2019-01-28T22:23:51.422Z,96920.27
2019-01-28T22:26:23.340Z,96921.64
2019-01-28T22:29:06.551Z,96924.61
2019-01-28T22:31:36.842Z,96923.75
2019-01-28T22:34:08.786Z,96929.86
2019-01-28T22:36:39.037Z,96929.53
2019-01-28T22:39:10.692Z,96939.86
2019-01-28T22:42:06.477Z,96943.31
2019-01-28T22:44:55.745Z,96944.85
2019-01-28T22:47:25.985Z,96944.40
2019-01-28T22:49:56.293Z,96946.66
2019-01-28T22:52:26.543Z,96947.20
2019-01-28T22:54:56.890Z,96950.91
2019-01-28T22:57:27.121Z,96960.02
2019-01-28T22:59:57.342Z,96963.88
2019-01-28T23:02:27.703Z,96962.45
2019-01-28T23:04:58.338Z,96968.75
2019-01-28T23:07:30.253Z,96965.50
2019-01-28T23:10:00.586Z,96970.92
2019-01-28T23:12:30.844Z,96972.84
2019-01-28T23:15:03.045Z,96974.52
2019-01-28T23:23:13.945Z,96982.52
2019-01-28T23:25:45.949Z,96991.55
2019-01-28T23:28:16.272Z,96999.81
2019-01-28T23:30:46.697Z,97001.19
2019-01-28T23:36:22.876Z,96998.92
2019-01-28T23:38:53.145Z,97007.61
2019-01-28T23:41:23.395Z,97013.31
2019-01-28T23:43:53.688Z,97013.31
2019-01-28T23:46:23.917Z,97011.89
2019-01-28T23:48:54.545Z,97023.48
2019-01-28T23:54:40.377Z,97023.45
2019-01-28T23:57:10.711Z,97033.88
2019-01-28T23:59:59.950Z,97028.81
